sensor_id;sensor_type;location;lat;lon;timestamp;temperature;humidity
34766;DHT22;20984;43.508;1.504;2022-09-28T00:02:00;14.80;99.90
34766;DHT22;20984;43.508;1.504;2022-09-28T00:04:25;14.80;99.90
34766;DHT22;20984;43.508;1.504;2022-09-28T00:06:52;14.80;99.90
34766;DHT22;20984;43.508;1.504;2022-09-28T00:09:17;14.80;99.90
34766;DHT22;20984;43.508;1.504;2022-09-28T00:11:44;14.90;99.90
34766;DHT22;20984;43.508;1.504;2022-09-28T00:14:11;14.90;99.90
34766;DHT22;20984;43.508;1.504;2022-09-28T00:16:39;14.90;99.90
34766;DHT22;20984;43.508;1.504;2022-09-28T00:19:05;15.00;99.90
34766;DHT22;20984;43.508;1.504;2022-09-28T00:21:34;15.00;99.90
34766;DHT22;20984;43.508;1.504;2022-09-28T00:24:02;15.00;99.90
34766;DHT22;20984;43.508;1.504;2022-09-28T00:26:53;15.00;99.90
34766;DHT22;20984;43.508;1.504;2022-09-28T00:29:25;15.00;99.90
34766;DHT22;20984;43.508;1.504;2022-09-28T00:31:56;15.10;99.90
34766;DHT22;20984;43.508;1.504;2022-09-28T00:34:28;15.10;99.90
34766;DHT22;20984;43.508;1.504;2022-09-28T00:36:58;15.20;99.90
34766;DHT22;20984;43.508;1.504;2022-09-28T00:39:25;15.10;99.90
34766;DHT22;20984;43.508;1.504;2022-09-28T00:41:52;15.20;99.90
34766;DHT22;20984;43.508;1.504;2022-09-28T00:46:56;15.20;99.90
34766;DHT22;20984;43.508;1.504;2022-09-28T00:52:38;15.10;99.90
34766;DHT22;20984;43.508;1.504;2022-09-28T00:55:08;15.00;99.90
34766;DHT22;20984;43.508;1.504;2022-09-28T00:57:39;15.10;99.90
34766;DHT22;20984;43.508;1.504;2022-09-28T01:00:07;15.10;99.90
34766;DHT22;20984;43.508;1.504;2022-09-28T01:02:33;15.10;99.90
34766;DHT22;20984;43.508;1.504;2022-09-28T01:05:00;15.10;99.90
34766;DHT22;20984;43.508;1.504;2022-09-28T01:07:28;15.20;99.90
34766;DHT22;20984;43.508;1.504;2022-09-28T01:09:54;15.20;99.90
34766;DHT22;20984;43.508;1.504;2022-09-28T01:12:20;15.10;99.90
34766;DHT22;20984;43.508;1.504;2022-09-28T01:14:47;15.00;99.90
34766;DHT22;20984;43.508;1.504;2022-09-28T01:17:16;15.10;99.90
34766;DHT22;20984;43.508;1.504;2022-09-28T01:25:40;14.70;99.90
34766;DHT22;20984;43.508;1.504;2022-09-28T01:28:14;14.60;99.90
34766;DHT22;20984;43.508;1.504;2022-09-28T01:30:55;14.60;99.90
34766;DHT22;20984;43.508;1.504;2022-09-28T01:33:27;14.60;99.90
34766;DHT22;20984;43.508;1.504;2022-09-28T01:36:06;14.60;99.90
34766;DHT22;20984;43.508;1.504;2022-09-28T01:38:50;14.60;99.90
34766;DHT22;20984;43.508;1.504;2022-09-28T01:41:18;14.70;99.90
34766;DHT22;20984;43.508;1.504;2022-09-28T01:43:52;14.70;99.90
34766;DHT22;20984;43.508;1.504;2022-09-28T01:46:25;14.70;99.90
34766;DHT22;20984;43.508;1.504;2022-09-28T01:48:58;14.70;99.90
34766;DHT22;20984;43.508;1.504;2022-09-28T01:51:33;14.80;99.90
34766;DHT22;20984;43.508;1.504;2022-09-28T01:54:08;14.80;99.90
34766;DHT22;20984;43.508;1.504;2022-09-28T01:56:47;14.80;99.90
34766;DHT22;20984;43.508;1.504;2022-09-28T01:59:20;14.80;99.90
34766;DHT22;20984;43.508;1.504;2022-09-28T02:04:31;14.80;99.90
34766;DHT22;20984;43.508;1.504;2022-09-28T02:09:39;14.70;99.90
34766;DHT22;20984;43.508;1.504;2022-09-28T02:12:15;14.60;99.90
34766;DHT22;20984;43.508;1.504;2022-09-28T02:14:43;14.60;99.90
34766;DHT22;20984;43.508;1.504;2022-09-28T02:17:12;14.50;99.90
34766;DHT22;20984;43.508;1.504;2022-09-28T02:19:40;14.50;99.90
34766;DHT22;20984;43.508;1.504;2022-09-28T02:24:39;14.60;99.90
34766;DHT22;20984;43.508;1.504;2022-09-28T02:27:36;14.60;99.90
34766;DHT22;20984;43.508;1.504;2022-09-28T02:30:05;14.50;99.90
34766;DHT22;20984;43.508;1.504;2022-09-28T02:32:34;14.60;99.90
34766;DHT22;20984;43.508;1.504;2022-09-28T02:35:07;14.50;99.90
34766;DHT22;20984;43.508;1.504;2022-09-28T02:37:33;14.60;99.90
34766;DHT22;20984;43.508;1.504;2022-09-28T02:39:59;14.60;99.90
34766;DHT22;20984;43.508;1.504;2022-09-28T02:48:34;14.60;99.90
34766;DHT22;20984;43.508;1.504;2022-09-28T02:56:40;14.70;99.90
34766;DHT22;20984;43.508;1.504;2022-09-28T03:02:28;14.70;99.90
34766;DHT22;20984;43.508;1.504;2022-09-28T03:08:10;14.70;99.90
34766;DHT22;20984;43.508;1.504;2022-09-28T03:10:45;14.80;99.90
34766;DHT22;20984;43.508;1.504;2022-09-28T03:13:14;14.80;99.90
34766;DHT22;20984;43.508;1.504;2022-09-28T03:15:41;14.90;99.90
34766;DHT22;20984;43.508;1.504;2022-09-28T03:18:09;14.90;99.90
34766;DHT22;20984;43.508;1.504;2022-09-28T03:20:34;14.90;99.90
34766;DHT22;20984;43.508;1.504;2022-09-28T03:23:00;14.80;99.90
34766;DHT22;20984;43.508;1.504;2022-09-28T03:25:26;14.80;99.90
34766;DHT22;20984;43.508;1.504;2022-09-28T03:27:52;14.80;99.90
34766;DHT22;20984;43.508;1.504;2022-09-28T03:30:18;14.80;99.90
34766;DHT22;20984;43.508;1.504;2022-09-28T03:32:44;14.80;99.90
34766;DHT22;20984;43.508;1.504;2022-09-28T03:35:10;14.80;99.90
34766;DHT22;20984;43.508;1.504;2022-09-28T03:37:35;14.90;99.90
34766;DHT22;20984;43.508;1.504;2022-09-28T03:40:02;14.90;99.90
34766;DHT22;20984;43.508;1.504;2022-09-28T03:42:28;14.90;99.90
34766;DHT22;20984;43.508;1.504;2022-09-28T03:44:54;14.90;99.90
34766;DHT22;20984;43.508;1.504;2022-09-28T03:47:21;14.90;99.90
34766;DHT22;20984;43.508;1.504;2022-09-28T03:49:47;15.00;99.90
34766;DHT22;20984;43.508;1.504;2022-09-28T03:52:13;15.00;99.90
34766;DHT22;20984;43.508;1.504;2022-09-28T03:54:39;15.00;99.90
34766;DHT22;20984;43.508;1.504;2022-09-28T03:57:05;15.10;99.90
34766;DHT22;20984;43.508;1.504;2022-09-28T03:59:31;15.10;99.90
34766;DHT22;20984;43.508;1.504;2022-09-28T04:01:57;15.10;99.90
34766;DHT22;20984;43.508;1.504;2022-09-28T04:04:23;15.10;99.90
34766;DHT22;20984;43.508;1.504;2022-09-28T04:06:49;15.20;99.90
34766;DHT22;20984;43.508;1.504;2022-09-28T04:09:14;15.10;99.90
34766;DHT22;20984;43.508;1.504;2022-09-28T04:11:41;15.20;99.90
34766;DHT22;20984;43.508;1.504;2022-09-28T04:14:07;15.20;99.90
34766;DHT22;20984;43.508;1.504;2022-09-28T04:16:32;15.20;99.90
34766;DHT22;20984;43.508;1.504;2022-09-28T04:18:58;15.20;99.90
34766;DHT22;20984;43.508;1.504;2022-09-28T04:21:24;15.20;99.90
34766;DHT22;20984;43.508;1.504;2022-09-28T04:23:50;15.20;99.90
34766;DHT22;20984;43.508;1.504;2022-09-28T04:26:22;15.20;99.90
34766;DHT22;20984;43.508;1.504;2022-09-28T04:28:48;15.20;99.90
34766;DHT22;20984;43.508;1.504;2022-09-28T04:31:44;15.20;99.90
34766;DHT22;20984;43.508;1.504;2022-09-28T04:34:12;15.20;99.90
34766;DHT22;20984;43.508;1.504;2022-09-28T04:36:39;15.30;99.90
34766;DHT22;20984;43.508;1.504;2022-09-28T04:39:05;15.30;99.90
34766;DHT22;20984;43.508;1.504;2022-09-28T04:41:32;15.30;99.90
34766;DHT22;20984;43.508;1.504;2022-09-28T04:43:58;15.20;99.90
34766;DHT22;20984;43.508;1.504;2022-09-28T04:46:24;15.20;99.90
34766;DHT22;20984;43.508;1.504;2022-09-28T04:48:50;15.10;99.90
34766;DHT22;20984;43.508;1.504;2022-09-28T04:51:16;15.10;99.90
34766;DHT22;20984;43.508;1.504;2022-09-28T04:53:42;15.10;99.90
34766;DHT22;20984;43.508;1.504;2022-09-28T04:56:11;15.00;99.90
34766;DHT22;20984;43.508;1.504;2022-09-28T04:58:37;15.00;99.90
34766;DHT22;20984;43.508;1.504;2022-09-28T05:01:06;14.90;99.90
34766;DHT22;20984;43.508;1.504;2022-09-28T05:03:33;14.90;99.90
34766;DHT22;20984;43.508;1.504;2022-09-28T05:05:59;14.90;99.90
34766;DHT22;20984;43.508;1.504;2022-09-28T05:08:26;14.90;99.90
34766;DHT22;20984;43.508;1.504;2022-09-28T05:11:04;14.90;99.90
34766;DHT22;20984;43.508;1.504;2022-09-28T05:13:31;14.90;99.90
34766;DHT22;20984;43.508;1.504;2022-09-28T05:15:57;14.90;99.90
34766;DHT22;20984;43.508;1.504;2022-09-28T05:18:24;14.90;99.90
34766;DHT22;20984;43.508;1.504;2022-09-28T05:20:50;14.90;99.90
34766;DHT22;20984;43.508;1.504;2022-09-28T05:23:16;14.90;99.90
34766;DHT22;20984;43.508;1.504;2022-09-28T05:25:43;14.90;99.90
34766;DHT22;20984;43.508;1.504;2022-09-28T05:28:10;14.90;99.90
34766;DHT22;20984;43.508;1.504;2022-09-28T05:30:36;15.00;99.90
34766;DHT22;20984;43.508;1.504;2022-09-28T05:33:02;15.00;99.90
34766;DHT22;20984;43.508;1.504;2022-09-28T05:35:29;15.00;99.90
34766;DHT22;20984;43.508;1.504;2022-09-28T05:37:55;15.00;99.90
34766;DHT22;20984;43.508;1.504;2022-09-28T05:40:22;15.00;99.90
34766;DHT22;20984;43.508;1.504;2022-09-28T05:42:48;14.90;99.90
34766;DHT22;20984;43.508;1.504;2022-09-28T05:45:14;15.00;99.90
34766;DHT22;20984;43.508;1.504;2022-09-28T05:47:41;15.00;99.90
34766;DHT22;20984;43.508;1.504;2022-09-28T05:50:09;15.00;99.90
34766;DHT22;20984;43.508;1.504;2022-09-28T05:52:40;15.00;99.90
34766;DHT22;20984;43.508;1.504;2022-09-28T05:55:07;15.00;99.90
34766;DHT22;20984;43.508;1.504;2022-09-28T05:57:33;15.00;99.90
34766;DHT22;20984;43.508;1.504;2022-09-28T05:59:59;15.00;99.90
34766;DHT22;20984;43.508;1.504;2022-09-28T06:02:24;15.00;99.90
34766;DHT22;20984;43.508;1.504;2022-09-28T06:04:50;15.00;99.90
34766;DHT22;20984;43.508;1.504;2022-09-28T06:07:17;15.00;99.90
34766;DHT22;20984;43.508;1.504;2022-09-28T06:09:43;15.00;99.90
34766;DHT22;20984;43.508;1.504;2022-09-28T06:12:08;15.00;99.90
34766;DHT22;20984;43.508;1.504;2022-09-28T06:14:34;15.00;99.90
34766;DHT22;20984;43.508;1.504;2022-09-28T06:17:00;15.00;99.90
34766;DHT22;20984;43.508;1.504;2022-09-28T06:19:26;15.10;99.90
34766;DHT22;20984;43.508;1.504;2022-09-28T06:21:52;15.10;99.90
34766;DHT22;20984;43.508;1.504;2022-09-28T06:24:17;15.10;99.90
34766;DHT22;20984;43.508;1.504;2022-09-28T06:26:43;15.20;99.90
34766;DHT22;20984;43.508;1.504;2022-09-28T06:29:09;15.20;99.90
34766;DHT22;20984;43.508;1.504;2022-09-28T06:31:35;15.30;99.90
34766;DHT22;20984;43.508;1.504;2022-09-28T06:34:01;15.40;99.90
34766;DHT22;20984;43.508;1.504;2022-09-28T06:36:29;15.50;99.90
34766;DHT22;20984;43.508;1.504;2022-09-28T06:38:56;15.50;99.90
34766;DHT22;20984;43.508;1.504;2022-09-28T06:41:22;15.60;99.90
34766;DHT22;20984;43.508;1.504;2022-09-28T06:43:47;15.60;99.90
34766;DHT22;20984;43.508;1.504;2022-09-28T06:46:14;15.50;99.90
34766;DHT22;20984;43.508;1.504;2022-09-28T06:48:40;15.50;99.90
34766;DHT22;20984;43.508;1.504;2022-09-28T06:51:06;15.50;99.90
34766;DHT22;20984;43.508;1.504;2022-09-28T06:53:31;15.40;99.90
34766;DHT22;20984;43.508;1.504;2022-09-28T06:55:57;15.40;99.90
34766;DHT22;20984;43.508;1.504;2022-09-28T06:58:24;15.40;99.90
34766;DHT22;20984;43.508;1.504;2022-09-28T07:00:55;15.40;99.90
34766;DHT22;20984;43.508;1.504;2022-09-28T07:03:24;15.40;99.90
34766;DHT22;20984;43.508;1.504;2022-09-28T07:05:51;15.50;99.90
34766;DHT22;20984;43.508;1.504;2022-09-28T07:08:20;15.60;99.90
34766;DHT22;20984;43.508;1.504;2022-09-28T07:10:49;15.60;99.90
34766;DHT22;20984;43.508;1.504;2022-09-28T07:13:22;15.70;99.90
34766;DHT22;20984;43.508;1.504;2022-09-28T07:15:52;15.70;99.90
34766;DHT22;20984;43.508;1.504;2022-09-28T07:18:18;15.80;99.90
34766;DHT22;20984;43.508;1.504;2022-09-28T07:20:43;15.70;99.90
34766;DHT22;20984;43.508;1.504;2022-09-28T07:23:09;15.60;99.90
34766;DHT22;20984;43.508;1.504;2022-09-28T07:25:35;15.60;99.90
34766;DHT22;20984;43.508;1.504;2022-09-28T07:28:05;15.60;99.90
34766;DHT22;20984;43.508;1.504;2022-09-28T07:30:33;15.50;99.90
34766;DHT22;20984;43.508;1.504;2022-09-28T07:33:00;15.50;99.90
34766;DHT22;20984;43.508;1.504;2022-09-28T07:35:26;15.50;99.90
34766;DHT22;20984;43.508;1.504;2022-09-28T07:38:02;15.60;99.90
34766;DHT22;20984;43.508;1.504;2022-09-28T07:40:29;15.60;99.90
34766;DHT22;20984;43.508;1.504;2022-09-28T07:43:15;15.60;99.90
34766;DHT22;20984;43.508;1.504;2022-09-28T07:45:45;15.70;99.90
34766;DHT22;20984;43.508;1.504;2022-09-28T07:48:12;15.80;99.90
34766;DHT22;20984;43.508;1.504;2022-09-28T07:50:48;15.90;99.90
34766;DHT22;20984;43.508;1.504;2022-09-28T07:53:21;15.80;99.90
34766;DHT22;20984;43.508;1.504;2022-09-28T07:55:53;15.90;99.90
34766;DHT22;20984;43.508;1.504;2022-09-28T07:58:18;15.80;99.90
34766;DHT22;20984;43.508;1.504;2022-09-28T08:00:46;15.80;99.90
34766;DHT22;20984;43.508;1.504;2022-09-28T08:03:18;15.90;99.90
34766;DHT22;20984;43.508;1.504;2022-09-28T08:05:44;16.00;99.90
34766;DHT22;20984;43.508;1.504;2022-09-28T08:08:11;16.00;99.90
34766;DHT22;20984;43.508;1.504;2022-09-28T08:10:37;16.00;99.90
34766;DHT22;20984;43.508;1.504;2022-09-28T08:13:04;16.00;99.90
34766;DHT22;20984;43.508;1.504;2022-09-28T08:15:33;16.00;99.90
34766;DHT22;20984;43.508;1.504;2022-09-28T08:18:05;16.00;99.90
34766;DHT22;20984;43.508;1.504;2022-09-28T08:20:32;16.00;99.90
34766;DHT22;20984;43.508;1.504;2022-09-28T08:23:17;16.10;99.90
34766;DHT22;20984;43.508;1.504;2022-09-28T08:25:47;16.30;99.90
34766;DHT22;20984;43.508;1.504;2022-09-28T08:28:17;16.50;99.90
34766;DHT22;20984;43.508;1.504;2022-09-28T08:30:44;16.60;99.90
34766;DHT22;20984;43.508;1.504;2022-09-28T08:33:14;16.70;99.90
34766;DHT22;20984;43.508;1.504;2022-09-28T08:35:40;16.70;99.90
34766;DHT22;20984;43.508;1.504;2022-09-28T08:38:06;16.70;99.90
34766;DHT22;20984;43.508;1.504;2022-09-28T08:40:41;16.80;99.90
34766;DHT22;20984;43.508;1.504;2022-09-28T08:46:22;16.90;99.90
34766;DHT22;20984;43.508;1.504;2022-09-28T08:48:57;16.90;99.90
34766;DHT22;20984;43.508;1.504;2022-09-28T08:54:23;17.00;99.90
34766;DHT22;20984;43.508;1.504;2022-09-28T08:57:03;17.10;99.90
34766;DHT22;20984;43.508;1.504;2022-09-28T08:59:57;17.20;99.90
34766;DHT22;20984;43.508;1.504;2022-09-28T09:02:37;17.10;99.90
34766;DHT22;20984;43.508;1.504;2022-09-28T09:05:10;17.10;99.90
34766;DHT22;20984;43.508;1.504;2022-09-28T09:19:10;17.80;99.90
34766;DHT22;20984;43.508;1.504;2022-09-28T09:21:41;17.90;99.90
34766;DHT22;20984;43.508;1.504;2022-09-28T09:24:25;18.10;99.90
34766;DHT22;20984;43.508;1.504;2022-09-28T09:44:04;17.60;99.90
34766;DHT22;20984;43.508;1.504;2022-09-28T09:49:21;17.80;99.90
34766;DHT22;20984;43.508;1.504;2022-09-28T09:52:02;18.10;99.90
34766;DHT22;20984;43.508;1.504;2022-09-28T09:54:36;18.30;99.90
34766;DHT22;20984;43.508;1.504;2022-09-28T09:57:14;18.30;99.90
34766;DHT22;20984;43.508;1.504;2022-09-28T09:59:42;18.20;99.90
34766;DHT22;20984;43.508;1.504;2022-09-28T10:04:57;18.30;99.90
34766;DHT22;20984;43.508;1.504;2022-09-28T10:07:38;18.50;99.90
34766;DHT22;20984;43.508;1.504;2022-09-28T10:10:11;18.70;99.90
34766;DHT22;20984;43.508;1.504;2022-09-28T10:12:40;18.70;99.90
34766;DHT22;20984;43.508;1.504;2022-09-28T10:15:07;18.30;99.90
34766;DHT22;20984;43.508;1.504;2022-09-28T10:17:33;17.60;99.90
34766;DHT22;20984;43.508;1.504;2022-09-28T10:20:00;17.10;99.90
34766;DHT22;20984;43.508;1.504;2022-09-28T10:22:27;16.90;99.90
34766;DHT22;20984;43.508;1.504;2022-09-28T10:24:55;16.80;99.90
34766;DHT22;20984;43.508;1.504;2022-09-28T10:27:33;16.70;99.90
34766;DHT22;20984;43.508;1.504;2022-09-28T10:32:46;16.70;99.90
34766;DHT22;20984;43.508;1.504;2022-09-28T10:37:49;16.70;99.90
34766;DHT22;20984;43.508;1.504;2022-09-28T10:40:45;16.80;99.90
34766;DHT22;20984;43.508;1.504;2022-09-28T10:43:30;16.90;99.90
34766;DHT22;20984;43.508;1.504;2022-09-28T10:46:11;16.90;99.90
34766;DHT22;20984;43.508;1.504;2022-09-28T10:49:03;16.80;99.90
34766;DHT22;20984;43.508;1.504;2022-09-28T10:51:49;16.90;99.90
34766;DHT22;20984;43.508;1.504;2022-09-28T10:54:21;16.80;99.90
34766;DHT22;20984;43.508;1.504;2022-09-28T10:56:49;16.90;99.90
34766;DHT22;20984;43.508;1.504;2022-09-28T11:01:56;16.90;99.90
34766;DHT22;20984;43.508;1.504;2022-09-28T11:04:26;16.80;99.90
34766;DHT22;20984;43.508;1.504;2022-09-28T11:06:54;16.70;99.90
34766;DHT22;20984;43.508;1.504;2022-09-28T11:09:30;16.60;99.90
34766;DHT22;20984;43.508;1.504;2022-09-28T11:11:58;16.60;99.90
34766;DHT22;20984;43.508;1.504;2022-09-28T11:14:34;16.50;99.90
34766;DHT22;20984;43.508;1.504;2022-09-28T11:19:56;16.40;99.90
34766;DHT22;20984;43.508;1.504;2022-09-28T11:22:48;16.40;99.90
34766;DHT22;20984;43.508;1.504;2022-09-28T11:30:43;16.50;99.90
34766;DHT22;20984;43.508;1.504;2022-09-28T11:33:15;16.40;99.90
34766;DHT22;20984;43.508;1.504;2022-09-28T11:44:37;16.90;99.90
34766;DHT22;20984;43.508;1.504;2022-09-28T11:50:20;17.20;99.90
34766;DHT22;20984;43.508;1.504;2022-09-28T11:55:36;17.40;99.90
34766;DHT22;20984;43.508;1.504;2022-09-28T11:58:21;17.60;99.90
34766;DHT22;20984;43.508;1.504;2022-09-28T12:00:53;17.60;99.90
34766;DHT22;20984;43.508;1.504;2022-09-28T12:03:27;17.70;99.90
34766;DHT22;20984;43.508;1.504;2022-09-28T12:06:05;17.60;99.90
34766;DHT22;20984;43.508;1.504;2022-09-28T12:08:40;17.60;99.90
34766;DHT22;20984;43.508;1.504;2022-09-28T12:11:23;17.40;99.90
34766;DHT22;20984;43.508;1.504;2022-09-28T12:13:53;17.30;99.90
34766;DHT22;20984;43.508;1.504;2022-09-28T12:18:55;17.30;99.90
34766;DHT22;20984;43.508;1.504;2022-09-28T12:27:05;17.20;99.90
34766;DHT22;20984;43.508;1.504;2022-09-28T12:30:00;17.10;99.90
34766;DHT22;20984;43.508;1.504;2022-09-28T12:35:37;16.60;99.90
34766;DHT22;20984;43.508;1.504;2022-09-28T13:02:54;16.70;99.90
34766;DHT22;20984;43.508;1.504;2022-09-28T13:10:49;17.10;99.90
34766;DHT22;20984;43.508;1.504;2022-09-28T13:24:05;17.60;99.90
34766;DHT22;20984;43.508;1.504;2022-09-28T13:26:36;17.60;99.90
34766;DHT22;20984;43.508;1.504;2022-09-28T13:29:16;17.50;99.90
34766;DHT22;20984;43.508;1.504;2022-09-28T13:31:49;17.60;99.90
34766;DHT22;20984;43.508;1.504;2022-09-28T13:34:21;17.80;99.90
34766;DHT22;20984;43.508;1.504;2022-09-28T13:39:51;18.00;99.90
34766;DHT22;20984;43.508;1.504;2022-09-28T13:48:12;18.10;99.90
34766;DHT22;20984;43.508;1.504;2022-09-28T13:51:11;18.10;99.90
34766;DHT22;20984;43.508;1.504;2022-09-28T13:59:28;17.90;99.90
34766;DHT22;20984;43.508;1.504;2022-09-28T14:02:24;17.80;99.90
34766;DHT22;20984;43.508;1.504;2022-09-28T14:05:05;17.80;99.90
34766;DHT22;20984;43.508;1.504;2022-09-28T14:10:20;18.00;99.90
34766;DHT22;20984;43.508;1.504;2022-09-28T14:12:51;17.90;99.90
34766;DHT22;20984;43.508;1.504;2022-09-28T14:18:27;17.80;99.90
34766;DHT22;20984;43.508;1.504;2022-09-28T14:31:28;16.80;99.90
34766;DHT22;20984;43.508;1.504;2022-09-28T14:33:56;16.90;99.90
34766;DHT22;20984;43.508;1.504;2022-09-28T14:36:39;17.00;99.90
34766;DHT22;20984;43.508;1.504;2022-09-28T14:39:28;17.10;99.90
34766;DHT22;20984;43.508;1.504;2022-09-28T14:42:16;17.20;99.90
34766;DHT22;20984;43.508;1.504;2022-09-28T14:47:37;17.10;99.90
34766;DHT22;20984;43.508;1.504;2022-09-28T14:50:25;17.00;99.90
34766;DHT22;20984;43.508;1.504;2022-09-28T14:52:53;17.00;99.90
34766;DHT22;20984;43.508;1.504;2022-09-28T14:55:37;17.00;99.90
34766;DHT22;20984;43.508;1.504;2022-09-28T14:58:25;17.10;99.90
34766;DHT22;20984;43.508;1.504;2022-09-28T15:01:05;17.20;99.90
34766;DHT22;20984;43.508;1.504;2022-09-28T15:03:34;17.30;99.90
34766;DHT22;20984;43.508;1.504;2022-09-28T15:06:02;17.30;99.90
34766;DHT22;20984;43.508;1.504;2022-09-28T15:08:38;17.20;99.90
34766;DHT22;20984;43.508;1.504;2022-09-28T15:11:04;17.10;99.90
34766;DHT22;20984;43.508;1.504;2022-09-28T15:13:30;17.10;99.90
34766;DHT22;20984;43.508;1.504;2022-09-28T15:16:05;17.00;99.90
34766;DHT22;20984;43.508;1.504;2022-09-28T15:21:17;16.40;99.90
34766;DHT22;20984;43.508;1.504;2022-09-28T15:23:44;16.20;99.90
34766;DHT22;20984;43.508;1.504;2022-09-28T15:26:24;16.10;99.90
34766;DHT22;20984;43.508;1.504;2022-09-28T15:28:53;16.00;99.90
34766;DHT22;20984;43.508;1.504;2022-09-28T15:31:21;16.00;99.90
34766;DHT22;20984;43.508;1.504;2022-09-28T15:33:48;16.00;99.90
34766;DHT22;20984;43.508;1.504;2022-09-28T15:36:43;15.90;99.90
34766;DHT22;20984;43.508;1.504;2022-09-28T15:39:30;15.90;99.90
34766;DHT22;20984;43.508;1.504;2022-09-28T15:41:56;15.90;99.90
34766;DHT22;20984;43.508;1.504;2022-09-28T15:44:29;15.90;99.90
34766;DHT22;20984;43.508;1.504;2022-09-28T15:55:04;15.90;99.90
34766;DHT22;20984;43.508;1.504;2022-09-28T15:57:38;15.80;99.90
34766;DHT22;20984;43.508;1.504;2022-09-28T16:08:14;15.40;99.90
34766;DHT22;20984;43.508;1.504;2022-09-28T16:11:15;15.30;99.90
34766;DHT22;20984;43.508;1.504;2022-09-28T16:16:29;15.10;99.90
34766;DHT22;20984;43.508;1.504;2022-09-28T16:18:57;15.10;99.90
34766;DHT22;20984;43.508;1.504;2022-09-28T16:21:42;15.10;99.90
34766;DHT22;20984;43.508;1.504;2022-09-28T16:24:35;15.00;99.90
34766;DHT22;20984;43.508;1.504;2022-09-28T16:27:38;15.00;99.90
34766;DHT22;20984;43.508;1.504;2022-09-28T16:30:28;15.10;99.90
34766;DHT22;20984;43.508;1.504;2022-09-28T16:33:02;15.20;99.90
34766;DHT22;20984;43.508;1.504;2022-09-28T16:35:49;15.30;99.90
34766;DHT22;20984;43.508;1.504;2022-09-28T16:38:16;15.40;99.90
34766;DHT22;20984;43.508;1.504;2022-09-28T16:40:44;15.40;99.90
34766;DHT22;20984;43.508;1.504;2022-09-28T16:43:24;15.60;99.90
34766;DHT22;20984;43.508;1.504;2022-09-28T16:46:14;15.70;99.90
34766;DHT22;20984;43.508;1.504;2022-09-28T16:48:49;15.70;99.90
34766;DHT22;20984;43.508;1.504;2022-09-28T16:51:16;15.80;99.90
34766;DHT22;20984;43.508;1.504;2022-09-28T16:53:43;15.80;99.90
34766;DHT22;20984;43.508;1.504;2022-09-28T16:56:27;15.80;99.90
34766;DHT22;20984;43.508;1.504;2022-09-28T16:58:54;15.90;99.90
34766;DHT22;20984;43.508;1.504;2022-09-28T17:01:21;15.90;99.90
34766;DHT22;20984;43.508;1.504;2022-09-28T17:03:47;15.90;99.90
34766;DHT22;20984;43.508;1.504;2022-09-28T17:06:19;15.90;99.90
34766;DHT22;20984;43.508;1.504;2022-09-28T17:08:46;15.90;99.90
34766;DHT22;20984;43.508;1.504;2022-09-28T17:11:14;15.90;99.90
34766;DHT22;20984;43.508;1.504;2022-09-28T17:13:40;15.80;99.90
34766;DHT22;20984;43.508;1.504;2022-09-28T17:16:18;15.90;99.90
34766;DHT22;20984;43.508;1.504;2022-09-28T17:18:45;15.90;99.90
34766;DHT22;20984;43.508;1.504;2022-09-28T17:21:18;15.90;99.90
34766;DHT22;20984;43.508;1.504;2022-09-28T17:23:45;15.90;99.90
34766;DHT22;20984;43.508;1.504;2022-09-28T17:26:38;15.90;99.90
34766;DHT22;20984;43.508;1.504;2022-09-28T17:29:06;15.90;99.90
34766;DHT22;20984;43.508;1.504;2022-09-28T17:31:38;16.00;99.90
34766;DHT22;20984;43.508;1.504;2022-09-28T17:34:04;16.00;99.90
34766;DHT22;20984;43.508;1.504;2022-09-28T17:36:30;15.90;99.90
34766;DHT22;20984;43.508;1.504;2022-09-28T17:38:55;15.80;99.90
34766;DHT22;20984;43.508;1.504;2022-09-28T17:41:21;15.70;99.90
34766;DHT22;20984;43.508;1.504;2022-09-28T17:43:48;15.60;99.90
34766;DHT22;20984;43.508;1.504;2022-09-28T17:46:25;15.60;99.90
34766;DHT22;20984;43.508;1.504;2022-09-28T17:48:52;15.60;99.90
34766;DHT22;20984;43.508;1.504;2022-09-28T17:51:17;15.60;99.90
34766;DHT22;20984;43.508;1.504;2022-09-28T17:53:43;15.60;99.90
34766;DHT22;20984;43.508;1.504;2022-09-28T17:56:09;15.60;99.90
34766;DHT22;20984;43.508;1.504;2022-09-28T17:58:35;15.60;99.90
34766;DHT22;20984;43.508;1.504;2022-09-28T18:01:02;15.50;99.90
34766;DHT22;20984;43.508;1.504;2022-09-28T18:03:28;15.50;99.90
34766;DHT22;20984;43.508;1.504;2022-09-28T18:06:01;15.50;99.90
34766;DHT22;20984;43.508;1.504;2022-09-28T18:08:28;15.50;99.90
34766;DHT22;20984;43.508;1.504;2022-09-28T18:10:53;15.60;99.90
34766;DHT22;20984;43.508;1.504;2022-09-28T18:13:22;15.60;99.90
34766;DHT22;20984;43.508;1.504;2022-09-28T18:15:51;15.60;99.90
34766;DHT22;20984;43.508;1.504;2022-09-28T18:18:17;15.50;99.90
34766;DHT22;20984;43.508;1.504;2022-09-28T18:20:43;15.50;99.90
34766;DHT22;20984;43.508;1.504;2022-09-28T18:23:09;15.60;99.90
34766;DHT22;20984;43.508;1.504;2022-09-28T18:25:39;15.60;99.90
34766;DHT22;20984;43.508;1.504;2022-09-28T18:28:05;15.60;99.90
34766;DHT22;20984;43.508;1.504;2022-09-28T18:30:30;15.60;99.90
34766;DHT22;20984;43.508;1.504;2022-09-28T18:32:56;15.50;99.90
34766;DHT22;20984;43.508;1.504;2022-09-28T18:35:22;15.40;99.90
34766;DHT22;20984;43.508;1.504;2022-09-28T18:37:48;15.20;99.90
34766;DHT22;20984;43.508;1.504;2022-09-28T18:40:14;15.10;99.90
34766;DHT22;20984;43.508;1.504;2022-09-28T18:42:41;14.90;99.90
34766;DHT22;20984;43.508;1.504;2022-09-28T18:45:08;14.80;99.90
34766;DHT22;20984;43.508;1.504;2022-09-28T18:47:39;14.70;99.90
34766;DHT22;20984;43.508;1.504;2022-09-28T18:50:05;14.60;99.90
34766;DHT22;20984;43.508;1.504;2022-09-28T18:52:31;14.50;99.90
34766;DHT22;20984;43.508;1.504;2022-09-28T18:54:59;14.50;99.90
34766;DHT22;20984;43.508;1.504;2022-09-28T18:57:25;14.50;99.90
34766;DHT22;20984;43.508;1.504;2022-09-28T18:59:51;14.40;99.90
34766;DHT22;20984;43.508;1.504;2022-09-28T19:02:17;14.40;99.90
34766;DHT22;20984;43.508;1.504;2022-09-28T19:04:43;14.40;99.90
34766;DHT22;20984;43.508;1.504;2022-09-28T19:07:09;14.40;99.90
34766;DHT22;20984;43.508;1.504;2022-09-28T19:09:35;14.40;99.90
34766;DHT22;20984;43.508;1.504;2022-09-28T19:12:01;14.40;99.90
34766;DHT22;20984;43.508;1.504;2022-09-28T19:14:27;14.30;99.90
34766;DHT22;20984;43.508;1.504;2022-09-28T19:16:52;14.40;99.90
34766;DHT22;20984;43.508;1.504;2022-09-28T19:19:19;14.40;99.90
34766;DHT22;20984;43.508;1.504;2022-09-28T19:21:45;14.40;99.90
34766;DHT22;20984;43.508;1.504;2022-09-28T19:24:13;14.40;99.90
34766;DHT22;20984;43.508;1.504;2022-09-28T19:26:40;14.40;99.90
34766;DHT22;20984;43.508;1.504;2022-09-28T19:29:06;14.50;99.90